Time;durP1;ratioP1;P1;durP2;ratioP2;P2;SDS_P1;SDS_P2;PMS_P1;PMS_P2;Temp;Humidity;BMP_temperature;BMP_pressure;BME280_temperature;BME280_humidity;BME280_pressure;Samples;Min_cycle;Max_cycle;Signal;HPM_P1;HPM_P2
2022/03/24 00:00:53;;;;;;;17.10;10.43;;;;;;;6.96;45.14;101951.75;4920153;29;20028;-74
2022/03/24 00:03:38;;;;;;;20.30;10.70;;;;;;;6.89;45.07;101952.50;4920787;29;20043;-74
2022/03/24 00:06:24;;;;;;;19.88;10.35;;;;;;;6.88;44.77;101953.38;4919078;29;20040;-75
2022/03/24 00:09:10;;;;;;;21.35;10.30;;;;;;;6.86;45.42;101944.63;4905082;29;20134;-74
2022/03/24 00:11:56;;;;;;;18.38;9.80;;;;;;;6.92;45.41;101945.63;4919829;29;20040;-76
2022/03/24 00:14:42;;;;;;;20.10;10.32;;;;;;;6.77;46.27;101939.28;4919633;29;20052;-75
2022/03/24 00:17:28;;;;;;;20.95;9.70;;;;;;;7.34;45.53;101929.78;4920402;29;20046;-74
2022/03/24 00:20:14;;;;;;;18.13;9.65;;;;;;;7.04;46.05;101930.22;4919797;29;20028;-74
2022/03/24 00:23:00;;;;;;;17.08;9.77;;;;;;;7.00;46.15;101928.41;4920012;29;20140;-74
2022/03/24 00:25:46;;;;;;;20.50;10.60;;;;;;;6.79;46.83;101928.03;4920348;28;20319;-74
2022/03/24 00:28:32;;;;;;;19.52;9.93;;;;;;;6.99;46.70;101925.78;4919865;29;20032;-73
2022/03/24 00:31:17;;;;;;;19.00;10.32;;;;;;;6.85;47.19;101929.84;4920321;28;20111;-75
2022/03/24 00:34:03;;;;;;;18.27;9.50;;;;;;;6.60;47.26;101923.38;4919324;29;20028;-73
2022/03/24 00:36:49;;;;;;;21.60;9.63;;;;;;;6.41;48.09;101923.88;4920109;29;20047;-75
2022/03/24 00:39:35;;;;;;;16.58;9.57;;;;;;;6.66;48.04;101914.75;4905381;29;20028;-75
2022/03/24 00:42:22;;;;;;;19.45;9.77;;;;;;;6.51;48.54;101917.97;4919014;29;20021;-75
2022/03/24 00:45:12;;;;;;;19.65;10.43;;;;;;;6.47;48.84;101920.50;4906252;29;20024;-74
2022/03/24 00:47:58;;;;;;;23.33;10.77;;;;;;;6.43;48.81;101911.75;4919266;29;20027;-74
2022/03/24 00:50:44;;;;;;;23.25;10.45;;;;;;;6.60;49.46;101902.53;4919361;29;20043;-74
2022/03/24 00:53:30;;;;;;;18.13;10.55;;;;;;;6.58;49.98;101903.34;4919191;29;20099;-73
2022/03/24 00:56:20;;;;;;;17.70;10.68;;;;;;;6.42;51.01;101902.19;4904760;29;20040;-74
2022/03/24 00:59:05;;;;;;;16.33;9.55;;;;;;;6.50;51.38;101897.13;4919311;29;20028;-74
2022/03/24 01:01:52;;;;;;;20.48;10.52;;;;;;;6.38;52.40;101899.53;4917765;29;20187;-74
2022/03/24 01:04:38;;;;;;;21.58;11.25;;;;;;;6.56;52.92;101898.13;4919030;29;20032;-75
2022/03/24 01:07:24;;;;;;;19.92;10.57;;;;;;;6.42;53.58;101901.31;4918817;29;20127;-74
2022/03/24 01:10:12;;;;;;;21.08;11.13;;;;;;;6.08;56.66;101896.34;4919644;29;20035;-75
2022/03/24 01:12:59;;;;;;;26.65;11.00;;;;;;;6.22;57.24;101887.09;4918128;29;20032;-74
2022/03/24 01:15:45;;;;;;;21.30;10.55;;;;;;;6.01;58.59;101887.53;4919365;29;20047;-73
2022/03/24 01:18:34;;;;;;;17.10;10.60;;;;;;;6.33;58.78;101880.31;4918778;29;20361;-73
2022/03/24 01:21:20;;;;;;;21.83;10.60;;;;;;;6.45;58.92;101875.34;4918549;29;20032;-73
2022/03/24 01:24:06;;;;;;;19.63;10.73;;;;;;;6.38;60.22;101871.75;4904696;29;20028;-72
2022/03/24 01:26:51;;;;;;;20.15;10.50;;;;;;;6.16;62.29;101873.94;4904112;29;20039;-74
2022/03/24 01:29:37;;;;;;;23.38;11.35;;;;;;;6.36;61.62;101876.06;4919280;29;20039;-73
2022/03/24 01:32:24;;;;;;;20.25;11.13;;;;;;;6.24;63.35;101874.97;4918365;29;20131;-74
2022/03/24 01:35:10;;;;;;;22.55;12.23;;;;;;;6.15;63.46;101869.59;4904993;29;20414;-73
2022/03/24 01:37:56;;;;;;;21.25;12.02;;;;;;;6.14;63.60;101867.84;4919064;29;20028;-74
2022/03/24 01:40:42;;;;;;;27.50;13.07;;;;;;;6.01;64.57;101860.63;4918982;29;20028;-74
2022/03/24 01:43:29;;;;;;;27.88;13.02;;;;;;;5.86;65.43;101862.97;4918832;29;20036;-75
2022/03/24 01:46:20;;;;;;;20.48;11.68;;;;;;;5.54;67.70;101849.25;4919059;29;20047;-73
2022/03/24 01:49:05;;;;;;;23.63;11.68;;;;;;;6.11;65.01;101855.63;4918355;29;20038;-74
2022/03/24 01:51:52;;;;;;;24.60;11.48;;;;;;;5.75;67.40;101847.13;4904710;29;20087;-75
2022/03/24 01:54:44;;;;;;;21.48;11.52;;;;;;;5.82;67.03;101848.16;4904895;29;20142;-75
2022/03/24 01:57:30;;;;;;;20.88;11.27;;;;;;;5.63;69.71;101846.00;4918490;29;20056;-74
2022/03/24 02:00:16;;;;;;;21.90;11.48;;;;;;;5.74;70.60;101845.34;4918858;29;20055;-74
2022/03/24 02:03:04;;;;;;;21.95;11.38;;;;;;;6.33;67.57;101839.56;4918458;29;20335;-74
2022/03/24 02:05:49;;;;;;;22.67;11.52;;;;;;;6.15;68.98;101835.78;4904599;29;20034;-74
2022/03/24 02:08:35;;;;;;;19.83;10.88;;;;;;;6.35;68.03;101847.41;4907686;29;20187;-74
2022/03/24 02:11:21;;;;;;;23.85;11.55;;;;;;;6.42;69.41;101836.22;4908003;29;20136;-74
2022/03/24 02:14:07;;;;;;;22.23;12.07;;;;;;;6.56;67.98;101833.03;4907502;29;20138;-74
2022/03/24 02:16:53;;;;;;;23.00;10.93;;;;;;;6.40;69.12;101827.53;4908501;29;20101;-74
2022/03/24 02:19:40;;;;;;;21.02;11.82;;;;;;;6.38;70.15;101831.88;4907852;29;20028;-74
2022/03/24 02:22:29;;;;;;;24.75;11.00;;;;;;;6.62;68.44;101827.03;4908463;29;20512;-74
2022/03/24 02:25:15;;;;;;;20.73;10.98;;;;;;;6.64;68.47;101833.16;4923163;29;20028;-75
2022/03/24 02:28:02;;;;;;;24.38;11.73;;;;;;;6.39;70.33;101823.19;4924773;29;20062;-74
2022/03/24 02:30:49;;;;;;;22.38;11.18;;;;;;;6.13;73.05;101827.03;4925826;29;20039;-74
2022/03/24 02:33:35;;;;;;;22.70;11.60;;;;;;;6.30;72.30;101820.44;4922451;29;20099;-74
2022/03/24 02:36:21;;;;;;;21.42;11.02;;;;;;;6.49;71.09;101814.66;4907624;29;20365;-75
2022/03/24 02:39:06;;;;;;;22.02;11.60;;;;;;;6.25;72.72;101822.06;4921189;29;20183;-74
2022/03/24 02:41:54;;;;;;;21.30;11.05;;;;;;;6.12;74.91;101817.50;4921494;29;20032;-74
2022/03/24 02:44:46;;;;;;;20.85;11.15;;;;;;;6.19;75.83;101824.56;4921341;29;20111;-74
2022/03/24 02:47:32;;;;;;;20.48;11.35;;;;;;;6.11;76.81;101811.41;4920784;29;20028;-74
2022/03/24 02:50:17;;;;;;;25.83;11.63;;;;;;;5.76;81.17;101808.97;4921025;29;20493;-74
2022/03/24 02:53:04;;;;;;;24.25;11.27;;;;;;;5.76;81.98;101808.97;4921173;29;20036;-74
2022/03/24 02:55:49;;;;;;;24.75;11.13;;;;;;;5.94;81.58;101806.78;4907201;29;20032;-74
2022/03/24 02:58:35;;;;;;;21.92;11.70;;;;;;;6.26;78.09;101801.28;4921256;29;20115;-74
2022/03/24 03:01:21;;;;;;;22.35;11.30;;;;;;;6.20;76.56;101800.28;4920446;29;20046;-73
2022/03/24 03:04:07;;;;;;;21.88;10.95;;;;;;;5.91;76.06;101791.97;4907639;29;20028;-72
2022/03/24 03:06:56;;;;;;;20.85;11.05;;;;;;;5.96;75.44;101799.84;4907184;29;20047;-72
2022/03/24 03:09:42;;;;;;;20.50;10.18;;;;;;;6.48;71.89;101786.91;4920886;29;20110;-73
2022/03/24 03:12:27;;;;;;;21.00;10.63;;;;;;;6.31;70.88;101789.22;4920785;29;20103;-72
2022/03/24 03:15:13;;;;;;;21.60;10.30;;;;;;;5.93;72.84;101790.28;4920726;29;20111;-73
2022/03/24 03:17:59;;;;;;;19.08;9.95;;;;;;;6.05;72.07;101793.09;4920237;29;20104;-72
2022/03/24 03:20:45;;;;;;;20.15;10.23;;;;;;;6.08;71.58;101780.16;4920765;29;20103;-73
2022/03/24 03:23:31;;;;;;;18.55;9.93;;;;;;;6.38;70.26;101782.41;4921975;28;20020;-72
2022/03/24 03:26:17;;;;;;;16.60;9.52;;;;;;;6.35;71.03;101784.94;4920789;29;20123;-74
2022/03/24 03:29:06;;;;;;;17.63;9.80;;;;;;;6.71;68.20;101790.75;4907115;29;20031;-72
2022/03/24 03:31:54;;;;;;;19.27;9.82;;;;;;;6.79;67.28;101779.56;4920656;29;20032;-72
2022/03/24 03:34:41;;;;;;;24.48;10.35;;;;;;;6.62;68.25;101774.94;4920906;29;20092;-72
2022/03/24 03:37:27;;;;;;;22.33;9.25;;;;;;;6.18;70.62;101781.19;4921121;28;20056;-73
2022/03/24 03:40:13;;;;;;;19.23;9.02;;;;;;;6.52;69.77;101780.88;4907215;29;20046;-74
2022/03/24 03:42:59;;;;;;;18.42;9.20;;;;;;;6.55;68.99;101779.19;4920842;29;20059;-73
2022/03/24 03:45:45;;;;;;;19.67;9.30;;;;;;;6.50;68.94;101773.03;4920639;29;20024;-73
2022/03/24 03:48:30;;;;;;;18.45;8.90;;;;;;;6.46;69.09;101770.34;4920604;29;20028;-73
2022/03/24 03:51:16;;;;;;;17.33;9.10;;;;;;;5.87;72.08;101769.34;4920229;29;20040;-73
2022/03/24 03:54:03;;;;;;;18.65;9.07;;;;;;;5.52;76.18;101770.41;4906467;29;20060;-73
2022/03/24 03:56:48;;;;;;;17.27;9.52;;;;;;;5.51;77.74;101772.97;4907065;29;20036;-72
2022/03/24 03:59:34;;;;;;;16.13;9.40;;;;;;;5.61;77.64;101772.28;4920612;29;20040;-73
2022/03/24 04:02:20;;;;;;;16.88;9.45;;;;;;;5.56;78.09;101768.72;4919975;29;20087;-72
2022/03/24 04:05:07;;;;;;;19.30;9.55;;;;;;;5.75;75.96;101761.31;4920277;29;20548;-72
2022/03/24 04:07:52;;;;;;;22.95;9.48;;;;;;;5.85;74.28;101767.56;4920138;29;20449;-73
2022/03/24 04:10:39;;;;;;;19.05;9.45;;;;;;;6.06;72.78;101767.97;4920422;29;20024;-72
2022/03/24 04:13:25;;;;;;;17.25;10.00;;;;;;;5.68;76.16;101769.84;4919473;29;20382;-73
2022/03/24 04:16:12;;;;;;;19.77;9.55;;;;;;;5.86;75.96;101762.41;4919999;29;20472;-73
2022/03/24 04:18:58;;;;;;;20.30;9.18;;;;;;;5.73;75.54;101759.50;4906690;29;20384;-74
2022/03/24 04:21:43;;;;;;;21.80;9.73;;;;;;;5.90;75.04;101758.16;4907250;29;20020;-72
2022/03/24 04:24:29;;;;;;;19.50;9.05;;;;;;;5.75;76.48;101761.31;4919822;29;20094;-73
2022/03/24 04:27:15;;;;;;;17.60;9.43;;;;;;;5.69;77.29;101758.59;4919272;29;20043;-73
2022/03/24 04:30:01;;;;;;;22.58;10.48;;;;;;;5.90;75.05;101758.16;4920570;28;20036;-73
2022/03/24 04:32:48;;;;;;;19.85;9.80;;;;;;;5.82;75.32;101755.41;4918882;29;20463;-74
2022/03/24 04:35:34;;;;;;;23.55;10.82;;;;;;;5.72;76.65;101762.97;4919385;29;20028;-72
2022/03/24 04:38:21;;;;;;;20.75;9.75;;;;;;;5.84;75.39;101753.72;4919117;29;20446;-74
2022/03/24 04:41:07;;;;;;;19.42;10.10;;;;;;;5.88;75.38;101754.63;4920296;29;20040;-72
2022/03/24 04:43:53;;;;;;;19.08;9.43;;;;;;;5.74;76.15;101763.88;4918787;29;20449;-74
2022/03/24 04:46:38;;;;;;;19.98;9.38;;;;;;;5.74;77.46;101759.53;4919476;29;20512;-73
2022/03/24 04:49:25;;;;;;;20.90;10.60;;;;;;;5.75;76.10;101757.84;4918769;29;20032;-73
2022/03/24 04:52:12;;;;;;;19.42;9.48;;;;;;;5.79;76.37;101764.84;4919103;29;20035;-74
2022/03/24 04:54:59;;;;;;;22.67;9.70;;;;;;;5.88;75.77;101752.91;4919452;29;20032;-74
2022/03/24 04:57:45;;;;;;;21.17;9.55;;;;;;;5.73;76.33;101755.19;4919606;29;20036;-74
2022/03/24 05:00:31;;;;;;;19.80;10.07;;;;;;;6.11;75.94;101763.72;4920350;28;20036;-73
2022/03/24 05:03:16;;;;;;;19.60;9.95;;;;;;;5.90;76.07;101760.75;4918680;29;20508;-72
2022/03/24 05:06:02;;;;;;;20.02;10.30;;;;;;;5.76;76.55;101757.88;4919871;29;20055;-74
2022/03/24 05:08:49;;;;;;;24.98;10.07;;;;;;;5.80;77.80;101762.28;4918856;29;20094;-73
2022/03/24 05:11:35;;;;;;;22.33;10.77;;;;;;;5.97;76.25;101758.28;4919567;29;20103;-72
2022/03/24 05:14:21;;;;;;;20.75;11.32;;;;;;;5.94;77.46;101754.75;4930808;29;20113;-72
2022/03/24 05:17:06;;;;;;;20.33;11.40;;;;;;;6.33;74.89;101758.00;4913900;29;20076;-75
2022/03/24 05:19:52;;;;;;;23.38;11.05;;;;;;;6.22;76.27;101751.78;4905191;29;20028;-73
2022/03/24 05:22:38;;;;;;;20.38;11.23;;;;;;;6.29;74.22;101757.09;4919483;29;20091;-73
2022/03/24 05:25:26;;;;;;;22.42;11.88;;;;;;;6.31;75.05;101752.78;4905473;29;20071;-74
2022/03/24 05:28:12;;;;;;;21.00;10.55;;;;;;;6.15;76.19;101750.78;4918846;29;20115;-73
2022/03/24 05:30:57;;;;;;;23.63;11.02;;;;;;;6.22;76.79;101759.59;4904613;29;20111;-74
2022/03/24 05:33:44;;;;;;;23.65;12.23;;;;;;;6.31;76.27;101752.78;4918977;29;20074;-75
2022/03/24 05:36:30;;;;;;;23.02;11.55;;;;;;;6.55;73.62;101752.31;4904838;29;20024;-74
2022/03/24 05:39:16;;;;;;;21.40;10.57;;;;;;;6.83;72.63;101754.47;4904614;29;20070;-73
2022/03/24 05:42:02;;;;;;;23.58;11.30;;;;;;;6.70;72.26;101748.19;4920518;29;20032;-73
2022/03/24 05:44:48;;;;;;;21.52;9.90;;;;;;;6.93;71.43;101749.41;4907936;29;20032;-74
2022/03/24 05:47:34;;;;;;;20.58;11.02;;;;;;;7.08;70.63;101746.13;4922246;29;20028;-73
2022/03/24 05:50:20;;;;;;;21.40;10.30;;;;;;;7.11;70.88;101746.16;4921709;29;20369;-74
2022/03/24 05:53:07;;;;;;;24.20;10.02;;;;;;;7.13;70.30;101754.84;4922155;29;20060;-72
2022/03/24 05:55:52;;;;;;;18.90;9.85;;;;;;;7.36;68.93;101754.28;4921856;29;20107;-75
2022/03/24 05:58:38;;;;;;;20.58;10.23;;;;;;;7.64;67.15;101753.72;4921762;29;20039;-73
2022/03/24 06:01:24;;;;;;;19.17;9.57;;;;;;;7.57;66.88;101753.66;4921781;29;20347;-73
2022/03/24 06:04:15;;;;;;;19.77;9.25;;;;;;;7.71;67.03;101752.94;4922257;29;20036;-72
2022/03/24 06:07:01;;;;;;;32.60;15.65;;;;;;;7.64;67.77;101752.88;4908615;29;20039;-72
2022/03/24 06:09:49;;;;;;;20.00;9.32;;;;;;;7.88;66.08;101754.00;4921332;29;20103;-73
2022/03/24 06:12:35;;;;;;;17.48;8.65;;;;;;;7.97;65.40;101756.72;4922686;28;20060;-72
2022/03/24 06:15:21;;;;;;;18.33;9.10;;;;;;;8.13;64.09;101750.78;4921568;29;20315;-73
2022/03/24 06:18:07;;;;;;;18.08;8.40;;;;;;;8.26;63.67;101754.38;4922020;29;20457;-73
2022/03/24 06:20:53;;;;;;;18.73;8.38;;;;;;;8.18;63.82;101750.78;4922262;28;20414;-72
2022/03/24 06:23:38;;;;;;;20.77;8.85;;;;;;;8.13;64.61;101753.38;4922312;28;20036;-74
2022/03/24 06:26:24;;;;;;;15.73;9.25;;;;;;;8.25;65.13;101748.31;4907876;29;20036;-72
2022/03/24 06:29:13;;;;;;;28.60;13.55;;;;;;;8.43;64.13;101750.16;4922569;28;20123;-73
2022/03/24 06:31:59;;;;;;;22.27;10.68;;;;;;;8.46;63.67;101747.56;4907882;29;20024;-73
2022/03/24 06:34:47;;;;;;;18.08;8.98;;;;;;;8.61;62.41;101742.47;4907926;29;20043;-73
2022/03/24 06:37:39;;;;;;;18.65;8.68;;;;;;;8.69;62.01;101740.78;4921549;29;20039;-72
2022/03/24 06:40:25;;;;;;;18.13;8.68;;;;;;;9.07;60.62;101745.34;4907823;29;20024;-73
2022/03/24 06:43:11;;;;;;;16.67;8.90;;;;;;;9.38;59.80;101747.25;4921002;29;20039;-73
2022/03/24 06:45:57;;;;;;;17.55;8.48;;;;;;;9.62;58.43;101746.44;4922705;28;20464;-72
2022/03/24 06:48:43;;;;;;;13.60;7.97;;;;;;;9.71;58.07;101738.59;4922529;28;20123;-74
2022/03/24 06:51:30;;;;;;;18.40;8.32;;;;;;;9.98;57.37;101743.91;4922322;28;20028;-73
2022/03/24 06:54:16;;;;;;;16.95;8.88;;;;;;;10.36;56.17;101741.34;4921536;28;20032;-72
2022/03/24 06:57:02;;;;;;;17.20;9.00;;;;;;;10.09;56.56;101743.06;4921410;29;20028;-72
2022/03/24 06:59:48;;;;;;;16.40;9.57;;;;;;;9.93;56.61;101741.25;4922008;29;20425;-71
2022/03/24 07:02:34;;;;;;;20.98;10.20;;;;;;;10.26;56.15;101747.44;4920946;29;20028;-72
2022/03/24 07:05:20;;;;;;;20.85;10.20;;;;;;;10.37;56.17;101738.69;4921250;29;20020;-73
2022/03/24 07:08:07;;;;;;;19.45;10.43;;;;;;;10.33;56.20;101743.94;4920813;29;20036;-73
2022/03/24 07:10:53;;;;;;;20.27;9.60;;;;;;;10.51;56.19;101749.16;4907887;29;20043;-71
2022/03/24 07:13:38;;;;;;;34.45;16.98;;;;;;;10.61;55.26;101741.28;4921191;28;20123;-73
2022/03/24 07:16:24;;;;;;;22.83;10.40;;;;;;;10.94;54.96;101741.25;4920566;29;20452;-72
2022/03/24 07:19:10;;;;;;;20.90;10.10;;;;;;;10.97;55.07;101743.84;4906496;29;20094;-72
2022/03/24 07:21:55;;;;;;;18.58;10.00;;;;;;;11.10;53.96;101744.69;4920533;29;20028;-73
2022/03/24 07:24:42;;;;;;;17.52;9.43;;;;;;;11.06;53.33;101745.56;4920737;29;20024;-71
2022/03/24 07:27:28;;;;;;;20.13;9.43;;;;;;;11.23;53.22;101743.75;4920312;29;20390;-71
2022/03/24 07:30:14;;;;;;;18.80;10.15;;;;;;;11.49;52.27;101737.50;4920690;29;20505;-72
2022/03/24 07:33:02;;;;;;;17.33;9.48;;;;;;;11.69;51.99;101747.97;4919943;29;20469;-72
2022/03/24 07:35:48;;;;;;;20.35;9.80;;;;;;;11.64;51.67;101742.72;4921068;29;20087;-71
2022/03/24 07:38:35;;;;;;;23.08;11.23;;;;;;;11.86;51.86;101744.31;4907009;29;20460;-71
2022/03/24 07:41:22;;;;;;;17.95;10.15;;;;;;;11.96;51.89;101748.66;4920203;29;20047;-71
2022/03/24 07:44:08;;;;;;;21.33;10.30;;;;;;;11.98;51.99;101746.88;4920417;29;20019;-73
2022/03/24 07:46:54;;;;;;;18.98;9.52;;;;;;;11.87;51.71;101751.34;4906666;29;20096;-71
2022/03/24 07:49:40;;;;;;;20.90;9.70;;;;;;;12.13;51.36;101746.78;4920114;29;20036;-73
2022/03/24 07:52:30;;;;;;;20.25;10.68;;;;;;;12.07;51.77;101738.06;4920413;29;20092;-72
2022/03/24 07:55:16;;;;;;;18.45;9.38;;;;;;;11.93;52.18;101739.94;4919613;29;20127;-72
2022/03/24 07:58:02;;;;;;;20.60;10.55;;;;;;;12.24;51.96;101741.44;4920796;29;20024;-72
2022/03/24 08:00:48;;;;;;;20.67;10.65;;;;;;;12.58;51.37;101742.91;4906266;29;20360;-73
2022/03/24 08:03:34;;;;;;;22.55;11.10;;;;;;;12.54;51.86;101736.78;4905652;29;20028;-72
2022/03/24 08:06:21;;;;;;;23.10;11.07;;;;;;;12.94;51.71;101739.91;4920106;29;20347;-71
2022/03/24 08:09:07;;;;;;;18.42;10.20;;;;;;;13.26;51.29;101738.66;4920259;29;20052;-73
2022/03/24 08:11:53;;;;;;;22.50;10.30;;;;;;;13.58;51.02;101735.59;4919364;29;20090;-72
2022/03/24 08:14:38;;;;;;;26.83;10.93;;;;;;;13.27;51.07;101737.75;4905215;29;20136;-72
2022/03/24 08:17:24;;;;;;;19.77;10.70;;;;;;;13.76;50.95;101730.09;4919873;29;20111;-71
2022/03/24 08:20:11;;;;;;;20.27;9.95;;;;;;;13.90;50.73;101722.84;4919316;29;20039;-71
2022/03/24 08:22:56;;;;;;;20.25;9.32;;;;;;;14.06;49.56;101719.97;4919327;29;20461;-73
2022/03/24 08:25:44;;;;;;;19.50;9.55;;;;;;;14.29;48.65;101715.22;4919729;29;20036;-72
2022/03/24 08:28:30;;;;;;;18.23;9.40;;;;;;;14.62;48.45;101714.63;4920095;29;20028;-72
2022/03/24 08:31:15;;;;;;;19.83;9.13;;;;;;;14.98;47.47;101722.78;4918559;29;20083;-72
2022/03/24 08:34:01;;;;;;;17.63;8.45;;;;;;;15.37;46.05;101714.94;4919093;29;20055;-72
2022/03/24 08:36:47;;;;;;;15.95;8.35;;;;;;;14.55;46.92;101710.38;4918417;29;20032;-73
2022/03/24 08:39:33;;;;;;;16.25;9.23;;;;;;;15.92;45.23;101701.34;4919647;29;20031;-74
2022/03/24 08:42:19;;;;;;;16.55;9.10;;;;;;;15.83;45.27;101707.72;4919016;29;20518;-72
2022/03/24 08:45:08;;;;;;;21.25;10.95;;;;;;;16.07;44.39;101707.13;4918738;29;20036;-72
2022/03/24 08:47:54;;;;;;;15.90;8.07;;;;;;;16.33;43.76;101706.50;4905774;29;20024;-73
2022/03/24 08:50:39;;;;;;;17.23;8.55;;;;;;;16.55;43.00;101711.22;4918852;29;20454;-74
2022/03/24 08:53:25;;;;;;;14.80;8.75;;;;;;;16.09;43.88;101700.06;4918813;29;20032;-71
2022/03/24 08:56:11;;;;;;;21.15;8.85;;;;;;;16.38;43.33;101694.00;4905332;29;20571;-72
2022/03/24 08:58:58;;;;;;;16.80;8.75;;;;;;;16.71;42.41;101695.81;4919534;29;20035;-72
2022/03/24 09:01:44;;;;;;;16.98;9.18;;;;;;;16.72;42.26;101701.06;4904735;29;20039;-72
2022/03/24 09:04:30;;;;;;;16.17;8.15;;;;;;;17.13;41.50;101684.03;4918797;29;20036;-73
2022/03/24 09:07:16;;;;;;;14.45;8.70;;;;;;;16.98;41.81;101682.69;4918724;29;20042;-73
2022/03/24 09:10:06;;;;;;;30.45;9.32;;;;;;;17.17;41.85;101681.25;4919641;29;20087;-73
2022/03/24 09:12:52;;;;;;;15.90;8.75;;;;;;;16.69;41.92;101687.06;4904753;29;20342;-72
2022/03/24 09:15:38;;;;;;;15.75;8.77;;;;;;;17.05;41.64;101675.44;4906412;29;20493;-71
2022/03/24 09:18:24;;;;;;;16.90;9.50;;;;;;;17.06;41.13;101666.56;4909290;29;20039;-73
2022/03/24 09:21:10;;;;;;;16.60;10.60;;;;;;;17.21;41.20;101663.50;4922886;29;20028;-72
2022/03/24 09:23:58;;;;;;;18.25;9.18;;;;;;;17.00;41.79;101664.13;4922407;29;20354;-71
2022/03/24 09:26:44;;;;;;;24.27;9.68;;;;;;;17.50;41.24;101661.75;4922334;29;20035;-74
2022/03/24 09:29:30;;;;;;;17.15;9.05;;;;;;;17.33;41.13;101657.81;4923337;29;20051;-72
2022/03/24 09:32:17;;;;;;;16.08;8.85;;;;;;;17.72;40.41;101654.84;4923085;28;20032;-72
2022/03/24 09:35:04;;;;;;;16.70;8.98;;;;;;;17.17;41.28;101651.25;4923450;29;20054;-72
2022/03/24 09:37:50;;;;;;;17.75;8.10;;;;;;;17.17;41.35;101653.91;4922118;29;20111;-72
2022/03/24 09:40:36;;;;;;;18.83;8.93;;;;;;;17.73;40.97;101650.41;4923400;29;20032;-72
2022/03/24 09:43:22;;;;;;;17.42;9.40;;;;;;;18.27;39.99;101644.16;4921514;29;20028;-72
2022/03/24 09:46:09;;;;;;;15.63;8.70;;;;;;;18.12;40.08;101649.97;4922903;29;20044;-72
2022/03/24 09:48:55;;;;;;;13.63;8.48;;;;;;;17.69;40.47;101643.47;4922165;29;20091;-73
2022/03/24 09:51:42;;;;;;;13.48;8.23;;;;;;;17.89;40.01;101644.53;4922941;29;20111;-72
2022/03/24 09:54:28;;;;;;;16.33;8.65;;;;;;;17.93;40.05;101632.91;4921806;29;20032;-72
2022/03/24 09:57:14;;;;;;;15.80;9.38;;;;;;;17.68;39.82;101624.03;4922531;29;20040;-73
2022/03/24 10:00:01;;;;;;;15.77;8.73;;;;;;;18.17;39.95;101629.44;4923330;28;20111;-72
2022/03/24 10:03:26;;;;;;;17.23;9.45;;;;;;;18.20;39.29;101623.16;4922313;29;20064;-73
2022/03/24 10:06:12;;;;;;;14.48;8.68;;;;;;;18.20;39.29;101615.22;4908843;29;20032;-72
2022/03/24 10:08:58;;;;;;;16.90;9.20;;;;;;;18.65;38.14;101611.84;4922357;29;20028;-73
2022/03/24 10:11:48;;;;;;;18.08;9.50;;;;;;;18.59;38.44;101605.88;4923055;28;20024;-73
2022/03/24 10:14:35;;;;;;;17.27;9.05;;;;;;;18.60;37.60;101600.53;4921757;28;20525;-73
2022/03/24 10:17:21;;;;;;;16.30;9.13;;;;;;;18.95;37.37;101600.09;4922493;29;20095;-72
2022/03/24 10:20:15;;;;;;;22.45;15.27;;;;;;;19.09;37.43;101597.75;4922611;28;20365;-73
2022/03/24 10:23:04;;;;;;;17.23;9.10;;;;;;;18.25;37.55;101587.59;4922305;29;20027;-72
2022/03/24 10:25:53;;;;;;;16.52;9.07;;;;;;;18.77;37.66;101591.97;4908892;29;20032;-72
2022/03/24 10:28:56;;;;;;;14.25;8.57;;;;;;;18.83;38.18;101573.13;4921004;29;20083;-73
2022/03/24 10:31:43;;;;;;;17.83;9.60;;;;;;;19.22;37.03;101575.09;4922216;29;20116;-73
2022/03/24 10:34:38;;;;;;;14.05;8.98;;;;;;;19.36;36.70;101576.41;4908888;29;20028;-73
2022/03/24 10:37:26;;;;;;;14.70;9.18;;;;;;;19.79;35.96;101576.38;4922341;28;20103;-73
2022/03/24 10:40:13;;;;;;;16.92;9.10;;;;;;;19.77;35.65;101579.09;4921671;29;20024;-73
2022/03/24 10:42:59;;;;;;;19.23;9.05;;;;;;;18.83;36.17;101574.00;4921395;29;20028;-72
2022/03/24 10:45:45;;;;;;;16.00;8.98;;;;;;;19.12;36.03;101570.22;4922932;29;20599;-73
2022/03/24 10:48:30;;;;;;;16.83;8.65;;;;;;;19.77;35.21;101563.13;4907852;29;20457;-73
2022/03/24 10:51:26;;;;;;;15.65;8.93;;;;;;;20.06;34.58;101559.25;4921452;29;20035;-72
2022/03/24 10:54:18;;;;;;;15.52;8.98;;;;;;;20.11;34.01;101555.50;4922426;28;20032;-73
2022/03/24 10:57:13;;;;;;;17.02;8.98;;;;;;;20.67;33.62;101547.63;4921367;29;20039;-73
2022/03/24 10:59:59;;;;;;;14.63;8.65;;;;;;;20.61;33.34;101542.59;4921536;29;20526;-73
2022/03/24 11:02:45;;;;;;;17.00;8.80;;;;;;;20.47;33.05;101545.88;4907498;29;20032;-73
2022/03/24 11:05:31;;;;;;;12.55;8.10;;;;;;;20.79;32.99;101536.41;4907865;29;20028;-73
2022/03/24 11:08:18;;;;;;;14.73;8.13;;;;;;;20.62;31.63;101528.34;4920825;29;20042;-72
2022/03/24 11:11:09;;;;;;;16.58;9.02;;;;;;;20.97;31.88;101530.28;4906980;29;20032;-72
2022/03/24 11:14:00;;;;;;;17.27;9.85;;;;;;;20.58;32.41;101521.44;4921340;28;20548;-72
2022/03/24 11:16:47;;;;;;;16.48;8.68;;;;;;;20.86;32.33;101522.72;4921156;29;20040;-73
2022/03/24 11:19:32;;;;;;;12.30;8.05;;;;;;;21.22;31.61;101515.69;4907449;29;20111;-73
2022/03/24 11:22:18;;;;;;;11.85;8.27;;;;;;;21.19;31.28;101507.88;4921105;29;20090;-72
2022/03/24 11:25:05;;;;;;;14.40;8.55;;;;;;;21.40;30.68;101503.25;4920788;29;20059;-72
2022/03/24 11:27:53;;;;;;;16.52;8.82;;;;;;;21.48;30.27;101493.06;4920469;29;20031;-72
2022/03/24 11:30:39;;;;;;;14.52;9.40;;;;;;;21.18;29.94;101489.28;4920890;29;20028;-73
2022/03/24 11:33:26;;;;;;;14.20;9.10;;;;;;;21.86;29.39;101487.56;4906845;29;20028;-73
2022/03/24 11:36:13;;;;;;;19.52;9.07;;;;;;;21.45;29.46;101483.44;4920878;29;20034;-73
2022/03/24 11:39:05;;;;;;;12.57;8.55;;;;;;;21.95;29.50;101476.41;4905779;29;20066;-74
2022/03/24 11:41:58;;;;;;;19.30;8.60;;;;;;;21.64;29.57;101462.91;4920608;29;20479;-74
2022/03/24 11:44:52;;;;;;;13.90;8.60;;;;;;;21.47;29.38;101460.25;4907356;29;20032;-73
2022/03/24 11:48:03;;;;;;;12.88;8.70;;;;;;;21.88;29.36;101460.78;4920834;29;20028;-75
2022/03/24 11:50:55;;;;;;;13.98;8.50;;;;;;;22.09;28.45;101448.97;4906351;29;20032;-75
2022/03/24 11:53:41;;;;;;;16.65;8.77;;;;;;;21.89;28.21;101451.84;4920158;29;20175;-74
2022/03/24 11:56:28;;;;;;;11.93;8.35;;;;;;;21.99;28.18;101445.94;4920438;29;20032;-75
2022/03/24 11:59:18;;;;;;;14.27;8.50;;;;;;;21.94;27.44;101442.66;4906543;29;20067;-75
2022/03/24 12:02:18;;;;;;;17.45;8.55;;;;;;;21.92;27.28;101438.34;4920307;29;20028;-75
2022/03/24 12:05:04;;;;;;;12.60;8.43;;;;;;;22.39;26.91;101434.00;4920652;29;20036;-75
2022/03/24 12:07:50;;;;;;;13.60;8.32;;;;;;;21.65;28.29;101439.75;4919735;29;20028;-74
2022/03/24 12:10:36;;;;;;;13.45;8.30;;;;;;;22.36;27.82;101431.47;4920761;28;20032;-77
2022/03/24 12:13:22;;;;;;;15.25;8.77;;;;;;;22.25;27.74;101432.06;4919178;29;20055;-75
2022/03/24 12:16:21;;;;;;;11.85;8.30;;;;;;;21.81;28.11;101420.22;4919866;29;20036;-74
2022/03/24 12:19:35;;;;;;;15.30;9.05;;;;;;;22.19;27.63;101418.19;4920531;28;20032;-75
2022/03/24 12:22:28;;;;;;;14.50;8.55;;;;;;;21.88;27.90;101413.63;4906246;29;20036;-75
2022/03/24 12:25:14;;;;;;;11.57;7.50;;;;;;;22.45;27.29;101420.28;4905657;29;20032;-75
2022/03/24 12:28:22;;;;;;;14.50;8.52;;;;;;;21.82;27.57;101410.44;4920195;29;20095;-75
2022/03/24 12:31:08;;;;;;;17.13;8.75;;;;;;;22.22;27.43;101404.69;4919204;29;20043;-75
2022/03/24 12:34:12;;;;;;;15.02;8.52;;;;;;;21.94;27.28;101401.78;4919955;29;20036;-74
2022/03/24 12:37:00;;;;;;;12.70;8.32;;;;;;;22.24;27.14;101406.31;4920092;29;20032;-73
2022/03/24 12:39:46;;;;;;;15.00;8.40;;;;;;;21.92;27.06;101404.53;4906305;28;20028;-76
2022/03/24 12:42:54;;;;;;;14.52;9.38;;;;;;;21.61;27.32;101403.50;4920590;28;20028;-74
2022/03/24 12:45:40;;;;;;;16.73;8.50;;;;;;;21.50;27.27;101398.72;4919148;29;20156;-74
2022/03/24 12:48:39;;;;;;;15.18;9.10;;;;;;;21.75;27.50;101395.69;4919874;29;20045;-74
2022/03/24 12:51:28;;;;;;;14.63;8.23;;;;;;;21.72;27.35;101388.72;4919367;29;20035;-74